sensor_id;sensor_type;location;lat;lon;timestamp;P1;durP1;ratioP1;P2;durP2;ratioP2
54005;SDS011;39919;38.160;-122.260;2022-07-23T00:00:36;8.30;;;1.30;;
54005;SDS011;39919;38.160;-122.260;2022-07-23T00:03:06;8.35;;;1.15;;
54005;SDS011;39919;38.160;-122.260;2022-07-23T00:05:35;7.40;;;1.52;;
54005;SDS011;39919;38.160;-122.260;2022-07-23T00:08:07;8.35;;;1.25;;
54005;SDS011;39919;38.160;-122.260;2022-07-23T00:10:37;9.23;;;1.65;;
54005;SDS011;39919;38.160;-122.260;2022-07-23T00:13:06;5.90;;;1.17;;
54005;SDS011;39919;38.160;-122.260;2022-07-23T00:15:37;9.32;;;1.83;;
54005;SDS011;39919;38.160;-122.260;2022-07-23T00:18:06;7.25;;;1.13;;
54005;SDS011;39919;38.160;-122.260;2022-07-23T00:20:38;5.45;;;1.20;;
54005;SDS011;39919;38.160;-122.260;2022-07-23T00:23:07;5.45;;;0.82;;
54005;SDS011;39919;38.160;-122.260;2022-07-23T00:25:39;7.60;;;1.10;;
54005;SDS011;39919;38.160;-122.260;2022-07-23T00:28:08;5.65;;;1.42;;
54005;SDS011;39919;38.160;-122.260;2022-07-23T00:30:39;5.80;;;1.10;;
54005;SDS011;39919;38.160;-122.260;2022-07-23T00:33:08;6.00;;;1.50;;
54005;SDS011;39919;38.160;-122.260;2022-07-23T00:35:38;7.53;;;1.45;;
54005;SDS011;39919;38.160;-122.260;2022-07-23T00:38:11;9.40;;;1.33;;
54005;SDS011;39919;38.160;-122.260;2022-07-23T00:40:41;6.43;;;1.60;;
54005;SDS011;39919;38.160;-122.260;2022-07-23T00:43:10;5.70;;;1.45;;
54005;SDS011;39919;38.160;-122.260;2022-07-23T00:45:41;10.27;;;1.20;;
54005;SDS011;39919;38.160;-122.260;2022-07-23T00:48:10;12.52;;;2.05;;
54005;SDS011;39919;38.160;-122.260;2022-07-23T00:50:39;6.82;;;1.35;;
54005;SDS011;39919;38.160;-122.260;2022-07-23T00:53:08;8.55;;;1.40;;
54005;SDS011;39919;38.160;-122.260;2022-07-23T00:55:37;11.98;;;1.70;;
54005;SDS011;39919;38.160;-122.260;2022-07-23T00:58:07;10.43;;;1.48;;
54005;SDS011;39919;38.160;-122.260;2022-07-23T01:00:37;8.50;;;1.92;;
54005;SDS011;39919;38.160;-122.260;2022-07-23T01:03:08;7.85;;;1.45;;
54005;SDS011;39919;38.160;-122.260;2022-07-23T01:05:37;9.18;;;1.58;;
54005;SDS011;39919;38.160;-122.260;2022-07-23T01:08:06;13.38;;;1.75;;
54005;SDS011;39919;38.160;-122.260;2022-07-23T01:10:35;9.05;;;1.48;;
54005;SDS011;39919;38.160;-122.260;2022-07-23T01:13:04;6.32;;;1.23;;
54005;SDS011;39919;38.160;-122.260;2022-07-23T01:15:35;11.18;;;1.42;;
54005;SDS011;39919;38.160;-122.260;2022-07-23T01:18:04;8.48;;;1.42;;
54005;SDS011;39919;38.160;-122.260;2022-07-23T01:20:36;8.95;;;1.23;;
54005;SDS011;39919;38.160;-122.260;2022-07-23T01:23:07;7.90;;;1.17;;
54005;SDS011;39919;38.160;-122.260;2022-07-23T01:25:36;8.43;;;1.48;;
54005;SDS011;39919;38.160;-122.260;2022-07-23T01:28:14;8.32;;;1.65;;
54005;SDS011;39919;38.160;-122.260;2022-07-23T01:30:43;8.15;;;1.80;;
54005;SDS011;39919;38.160;-122.260;2022-07-23T01:33:13;9.32;;;1.42;;
54005;SDS011;39919;38.160;-122.260;2022-07-23T01:35:42;9.73;;;1.63;;
54005;SDS011;39919;38.160;-122.260;2022-07-23T01:38:12;7.50;;;0.90;;
54005;SDS011;39919;38.160;-122.260;2022-07-23T01:40:41;9.95;;;1.40;;
54005;SDS011;39919;38.160;-122.260;2022-07-23T01:43:10;11.35;;;1.52;;
54005;SDS011;39919;38.160;-122.260;2022-07-23T01:45:39;11.40;;;1.48;;
54005;SDS011;39919;38.160;-122.260;2022-07-23T01:48:12;9.30;;;1.38;;
54005;SDS011;39919;38.160;-122.260;2022-07-23T01:50:47;6.63;;;1.35;;
54005;SDS011;39919;38.160;-122.260;2022-07-23T01:53:17;10.23;;;1.40;;
54005;SDS011;39919;38.160;-122.260;2022-07-23T01:55:47;9.02;;;1.35;;
54005;SDS011;39919;38.160;-122.260;2022-07-23T01:58:19;9.68;;;1.70;;
54005;SDS011;39919;38.160;-122.260;2022-07-23T02:00:48;6.55;;;1.40;;
54005;SDS011;39919;38.160;-122.260;2022-07-23T02:03:17;13.15;;;1.50;;
54005;SDS011;39919;38.160;-122.260;2022-07-23T02:05:54;8.75;;;2.08;;
54005;SDS011;39919;38.160;-122.260;2022-07-23T02:08:26;13.65;;;2.95;;
54005;SDS011;39919;38.160;-122.260;2022-07-23T02:10:55;11.52;;;1.63;;
54005;SDS011;39919;38.160;-122.260;2022-07-23T02:13:24;12.43;;;1.80;;
54005;SDS011;39919;38.160;-122.260;2022-07-23T02:15:55;9.88;;;2.35;;
54005;SDS011;39919;38.160;-122.260;2022-07-23T02:18:25;9.85;;;2.00;;
54005;SDS011;39919;38.160;-122.260;2022-07-23T02:20:54;11.40;;;2.15;;
54005;SDS011;39919;38.160;-122.260;2022-07-23T02:23:39;12.27;;;2.15;;
54005;SDS011;39919;38.160;-122.260;2022-07-23T02:26:09;12.52;;;1.40;;
54005;SDS011;39919;38.160;-122.260;2022-07-23T02:28:38;15.77;;;2.30;;
54005;SDS011;39919;38.160;-122.260;2022-07-23T02:31:10;13.52;;;2.63;;
54005;SDS011;39919;38.160;-122.260;2022-07-23T02:33:39;11.65;;;2.20;;
54005;SDS011;39919;38.160;-122.260;2022-07-23T02:36:10;13.90;;;2.85;;
54005;SDS011;39919;38.160;-122.260;2022-07-23T02:38:40;19.13;;;2.67;;
54005;SDS011;39919;38.160;-122.260;2022-07-23T02:41:14;13.70;;;2.05;;
54005;SDS011;39919;38.160;-122.260;2022-07-23T02:43:43;9.63;;;2.03;;
54005;SDS011;39919;38.160;-122.260;2022-07-23T02:46:13;13.02;;;2.03;;
54005;SDS011;39919;38.160;-122.260;2022-07-23T02:48:42;15.32;;;2.42;;
54005;SDS011;39919;38.160;-122.260;2022-07-23T02:51:11;10.27;;;2.25;;
54005;SDS011;39919;38.160;-122.260;2022-07-23T02:53:42;13.68;;;2.67;;
54005;SDS011;39919;38.160;-122.260;2022-07-23T02:56:13;14.48;;;2.17;;
54005;SDS011;39919;38.160;-122.260;2022-07-23T02:58:42;13.85;;;3.40;;
54005;SDS011;39919;38.160;-122.260;2022-07-23T03:01:11;14.50;;;2.60;;
54005;SDS011;39919;38.160;-122.260;2022-07-23T03:03:40;11.85;;;1.85;;
54005;SDS011;39919;38.160;-122.260;2022-07-23T03:06:10;15.43;;;2.83;;
54005;SDS011;39919;38.160;-122.260;2022-07-23T03:08:39;14.13;;;2.47;;
54005;SDS011;39919;38.160;-122.260;2022-07-23T03:11:14;17.48;;;2.60;;
54005;SDS011;39919;38.160;-122.260;2022-07-23T03:13:44;13.23;;;2.10;;
54005;SDS011;39919;38.160;-122.260;2022-07-23T03:16:15;11.13;;;1.80;;
54005;SDS011;39919;38.160;-122.260;2022-07-23T03:18:43;14.73;;;1.80;;
54005;SDS011;39919;38.160;-122.260;2022-07-23T03:21:13;21.38;;;2.35;;
54005;SDS011;39919;38.160;-122.260;2022-07-23T03:23:42;14.75;;;2.40;;
54005;SDS011;39919;38.160;-122.260;2022-07-23T03:26:17;14.55;;;2.55;;
54005;SDS011;39919;38.160;-122.260;2022-07-23T03:28:56;9.60;;;1.63;;
54005;SDS011;39919;38.160;-122.260;2022-07-23T03:31:27;11.63;;;2.17;;
54005;SDS011;39919;38.160;-122.260;2022-07-23T03:33:56;17.30;;;2.85;;
54005;SDS011;39919;38.160;-122.260;2022-07-23T03:36:29;14.43;;;2.00;;
54005;SDS011;39919;38.160;-122.260;2022-07-23T03:39:00;12.52;;;1.85;;
54005;SDS011;39919;38.160;-122.260;2022-07-23T03:41:29;13.60;;;2.22;;
54005;SDS011;39919;38.160;-122.260;2022-07-23T03:43:58;16.13;;;2.85;;
54005;SDS011;39919;38.160;-122.260;2022-07-23T03:46:29;13.90;;;1.60;;
54005;SDS011;39919;38.160;-122.260;2022-07-23T03:48:58;11.98;;;2.03;;
54005;SDS011;39919;38.160;-122.260;2022-07-23T03:51:30;12.35;;;2.47;;
54005;SDS011;39919;38.160;-122.260;2022-07-23T03:54:02;18.83;;;2.65;;
54005;SDS011;39919;38.160;-122.260;2022-07-23T03:56:31;17.00;;;2.00;;
54005;SDS011;39919;38.160;-122.260;2022-07-23T03:59:00;14.73;;;2.22;;
54005;SDS011;39919;38.160;-122.260;2022-07-23T04:01:29;19.23;;;2.53;;
54005;SDS011;39919;38.160;-122.260;2022-07-23T04:03:58;28.58;;;4.45;;
54005;SDS011;39919;38.160;-122.260;2022-07-23T04:06:28;14.98;;;2.05;;
54005;SDS011;39919;38.160;-122.260;2022-07-23T04:08:58;17.70;;;2.50;;
54005;SDS011;39919;38.160;-122.260;2022-07-23T04:11:31;20.58;;;2.10;;
54005;SDS011;39919;38.160;-122.260;2022-07-23T04:14:00;16.08;;;1.73;;
54005;SDS011;39919;38.160;-122.260;2022-07-23T04:16:29;11.68;;;1.67;;
54005;SDS011;39919;38.160;-122.260;2022-07-23T04:18:59;16.10;;;2.38;;
54005;SDS011;39919;38.160;-122.260;2022-07-23T04:21:31;16.52;;;3.00;;
54005;SDS011;39919;38.160;-122.260;2022-07-23T04:24:04;15.05;;;2.42;;
54005;SDS011;39919;38.160;-122.260;2022-07-23T04:26:34;14.43;;;2.67;;
54005;SDS011;39919;38.160;-122.260;2022-07-23T04:29:07;16.05;;;2.65;;
54005;SDS011;39919;38.160;-122.260;2022-07-23T04:31:37;14.48;;;2.45;;
54005;SDS011;39919;38.160;-122.260;2022-07-23T04:34:06;18.48;;;2.25;;
54005;SDS011;39919;38.160;-122.260;2022-07-23T04:36:35;9.55;;;1.55;;
54005;SDS011;39919;38.160;-122.260;2022-07-23T04:39:04;16.23;;;2.25;;
54005;SDS011;39919;38.160;-122.260;2022-07-23T04:41:40;18.17;;;2.60;;
54005;SDS011;39919;38.160;-122.260;2022-07-23T04:44:09;12.63;;;2.25;;
54005;SDS011;39919;38.160;-122.260;2022-07-23T04:46:38;8.43;;;1.42;;
54005;SDS011;39919;38.160;-122.260;2022-07-23T04:49:10;11.10;;;1.67;;
54005;SDS011;39919;38.160;-122.260;2022-07-23T04:51:39;13.43;;;2.60;;
54005;SDS011;39919;38.160;-122.260;2022-07-23T04:54:08;13.80;;;2.13;;
54005;SDS011;39919;38.160;-122.260;2022-07-23T04:56:37;16.50;;;2.13;;
54005;SDS011;39919;38.160;-122.260;2022-07-23T04:59:08;20.63;;;3.40;;
54005;SDS011;39919;38.160;-122.260;2022-07-23T05:01:37;9.02;;;1.75;;
54005;SDS011;39919;38.160;-122.260;2022-07-23T05:04:07;16.65;;;3.15;;
54005;SDS011;39919;38.160;-122.260;2022-07-23T05:06:36;15.73;;;1.80;;
54005;SDS011;39919;38.160;-122.260;2022-07-23T05:09:05;14.13;;;2.55;;
54005;SDS011;39919;38.160;-122.260;2022-07-23T05:11:37;17.02;;;2.70;;
54005;SDS011;39919;38.160;-122.260;2022-07-23T05:14:08;17.52;;;2.25;;
54005;SDS011;39919;38.160;-122.260;2022-07-23T05:16:38;15.52;;;2.20;;
54005;SDS011;39919;38.160;-122.260;2022-07-23T05:19:07;14.70;;;2.22;;
54005;SDS011;39919;38.160;-122.260;2022-07-23T05:21:36;12.10;;;2.15;;
54005;SDS011;39919;38.160;-122.260;2022-07-23T05:24:06;24.08;;;2.75;;
54005;SDS011;39919;38.160;-122.260;2022-07-23T05:26:36;10.93;;;1.83;;
54005;SDS011;39919;38.160;-122.260;2022-07-23T05:29:15;7.13;;;2.03;;
54005;SDS011;39919;38.160;-122.260;2022-07-23T05:31:44;12.50;;;1.60;;
54005;SDS011;39919;38.160;-122.260;2022-07-23T05:34:13;17.27;;;2.30;;
54005;SDS011;39919;38.160;-122.260;2022-07-23T05:36:43;12.68;;;2.38;;
54005;SDS011;39919;38.160;-122.260;2022-07-23T05:39:12;7.07;;;1.20;;
54005;SDS011;39919;38.160;-122.260;2022-07-23T05:41:41;11.73;;;1.45;;
54005;SDS011;39919;38.160;-122.260;2022-07-23T05:44:14;6.55;;;0.93;;
54005;SDS011;39919;38.160;-122.260;2022-07-23T05:46:43;13.82;;;2.00;;
54005;SDS011;39919;38.160;-122.260;2022-07-23T05:49:15;11.82;;;1.95;;
54005;SDS011;39919;38.160;-122.260;2022-07-23T05:51:44;14.40;;;1.75;;
54005;SDS011;39919;38.160;-122.260;2022-07-23T05:54:15;14.73;;;2.78;;
54005;SDS011;39919;38.160;-122.260;2022-07-23T05:56:44;25.77;;;3.05;;
54005;SDS011;39919;38.160;-122.260;2022-07-23T05:59:23;17.92;;;2.35;;
54005;SDS011;39919;38.160;-122.260;2022-07-23T06:01:52;17.42;;;3.22;;
54005;SDS011;39919;38.160;-122.260;2022-07-23T06:04:24;14.50;;;2.25;;
54005;SDS011;39919;38.160;-122.260;2022-07-23T06:06:53;23.05;;;3.38;;
54005;SDS011;39919;38.160;-122.260;2022-07-23T06:09:22;8.80;;;1.35;;
54005;SDS011;39919;38.160;-122.260;2022-07-23T06:11:51;12.98;;;1.95;;
54005;SDS011;39919;38.160;-122.260;2022-07-23T06:14:20;16.50;;;2.17;;
54005;SDS011;39919;38.160;-122.260;2022-07-23T06:16:51;11.68;;;2.20;;
54005;SDS011;39919;38.160;-122.260;2022-07-23T06:19:20;12.07;;;2.10;;
54005;SDS011;39919;38.160;-122.260;2022-07-23T06:21:51;15.23;;;1.85;;
54005;SDS011;39919;38.160;-122.260;2022-07-23T06:24:21;16.52;;;2.58;;
54005;SDS011;39919;38.160;-122.260;2022-07-23T06:26:50;12.25;;;2.00;;
54005;SDS011;39919;38.160;-122.260;2022-07-23T06:29:19;13.48;;;2.35;;
54005;SDS011;39919;38.160;-122.260;2022-07-23T06:31:50;10.73;;;1.63;;
54005;SDS011;39919;38.160;-122.260;2022-07-23T06:34:19;11.07;;;1.45;;
54005;SDS011;39919;38.160;-122.260;2022-07-23T06:36:49;13.68;;;1.35;;
54005;SDS011;39919;38.160;-122.260;2022-07-23T06:39:18;9.90;;;1.98;;
54005;SDS011;39919;38.160;-122.260;2022-07-23T06:41:47;21.17;;;2.17;;
54005;SDS011;39919;38.160;-122.260;2022-07-23T06:44:13;19.58;;;1.75;;
54005;SDS011;39919;38.160;-122.260;2022-07-23T06:46:42;8.68;;;1.42;;
54005;SDS011;39919;38.160;-122.260;2022-07-23T06:49:15;16.70;;;2.72;;
54005;SDS011;39919;38.160;-122.260;2022-07-23T06:51:45;19.55;;;3.17;;
54005;SDS011;39919;38.160;-122.260;2022-07-23T06:54:14;23.13;;;3.30;;
54005;SDS011;39919;38.160;-122.260;2022-07-23T06:56:46;16.08;;;2.22;;
54005;SDS011;39919;38.160;-122.260;2022-07-23T06:59:15;19.70;;;2.33;;
54005;SDS011;39919;38.160;-122.260;2022-07-23T07:01:44;10.73;;;1.90;;
54005;SDS011;39919;38.160;-122.260;2022-07-23T07:04:13;16.50;;;2.47;;
54005;SDS011;39919;38.160;-122.260;2022-07-23T07:06:44;26.02;;;3.50;;
54005;SDS011;39919;38.160;-122.260;2022-07-23T07:09:12;19.05;;;3.38;;
54005;SDS011;39919;38.160;-122.260;2022-07-23T07:11:41;19.92;;;2.72;;
54005;SDS011;39919;38.160;-122.260;2022-07-23T07:14:10;17.92;;;2.30;;
54005;SDS011;39919;38.160;-122.260;2022-07-23T07:16:39;19.23;;;3.88;;
54005;SDS011;39919;38.160;-122.260;2022-07-23T07:19:09;10.32;;;2.05;;
54005;SDS011;39919;38.160;-122.260;2022-07-23T07:21:39;17.23;;;2.97;;
54005;SDS011;39919;38.160;-122.260;2022-07-23T07:24:08;26.45;;;3.03;;
54005;SDS011;39919;38.160;-122.260;2022-07-23T07:26:37;13.60;;;2.63;;
54005;SDS011;39919;38.160;-122.260;2022-07-23T07:29:06;14.27;;;2.85;;
54005;SDS011;39919;38.160;-122.260;2022-07-23T07:31:35;27.33;;;2.95;;
54005;SDS011;39919;38.160;-122.260;2022-07-23T07:34:04;20.90;;;2.75;;
54005;SDS011;39919;38.160;-122.260;2022-07-23T07:36:35;23.98;;;3.08;;
54005;SDS011;39919;38.160;-122.260;2022-07-23T07:39:07;19.35;;;3.13;;
54005;SDS011;39919;38.160;-122.260;2022-07-23T07:41:36;22.45;;;2.22;;
54005;SDS011;39919;38.160;-122.260;2022-07-23T07:44:06;20.27;;;3.10;;
54005;SDS011;39919;38.160;-122.260;2022-07-23T07:46:35;22.23;;;2.83;;
54005;SDS011;39919;38.160;-122.260;2022-07-23T07:49:04;19.77;;;3.15;;
54005;SDS011;39919;38.160;-122.260;2022-07-23T07:51:33;20.77;;;3.17;;
54005;SDS011;39919;38.160;-122.260;2022-07-23T07:54:03;18.50;;;3.22;;
54005;SDS011;39919;38.160;-122.260;2022-07-23T07:56:34;22.67;;;2.85;;
54005;SDS011;39919;38.160;-122.260;2022-07-23T07:59:03;17.23;;;2.80;;
54005;SDS011;39919;38.160;-122.260;2022-07-23T08:01:32;20.50;;;2.33;;
54005;SDS011;39919;38.160;-122.260;2022-07-23T08:04:04;17.50;;;2.67;;
54005;SDS011;39919;38.160;-122.260;2022-07-23T08:06:34;23.55;;;3.58;;
54005;SDS011;39919;38.160;-122.260;2022-07-23T08:09:03;17.83;;;2.97;;
54005;SDS011;39919;38.160;-122.260;2022-07-23T08:11:34;21.52;;;2.95;;
54005;SDS011;39919;38.160;-122.260;2022-07-23T08:14:06;14.90;;;3.35;;
54005;SDS011;39919;38.160;-122.260;2022-07-23T08:16:36;18.90;;;3.22;;
54005;SDS011;39919;38.160;-122.260;2022-07-23T08:19:05;15.30;;;2.60;;
54005;SDS011;39919;38.160;-122.260;2022-07-23T08:21:34;23.60;;;3.00;;
54005;SDS011;39919;38.160;-122.260;2022-07-23T08:24:03;13.55;;;2.67;;
54005;SDS011;39919;38.160;-122.260;2022-07-23T08:26:32;11.88;;;1.88;;
54005;SDS011;39919;38.160;-122.260;2022-07-23T08:29:04;21.35;;;2.40;;
54005;SDS011;39919;38.160;-122.260;2022-07-23T08:31:33;24.85;;;2.78;;
54005;SDS011;39919;38.160;-122.260;2022-07-23T08:34:01;25.38;;;3.55;;
54005;SDS011;39919;38.160;-122.260;2022-07-23T08:36:30;23.15;;;3.03;;
54005;SDS011;39919;38.160;-122.260;2022-07-23T08:38:59;22.33;;;4.03;;
54005;SDS011;39919;38.160;-122.260;2022-07-23T08:41:29;20.20;;;2.92;;
54005;SDS011;39919;38.160;-122.260;2022-07-23T08:43:59;25.45;;;3.95;;
54005;SDS011;39919;38.160;-122.260;2022-07-23T08:46:31;18.92;;;2.80;;
54005;SDS011;39919;38.160;-122.260;2022-07-23T08:49:00;25.98;;;3.20;;
54005;SDS011;39919;38.160;-122.260;2022-07-23T08:51:29;26.98;;;3.90;;
54005;SDS011;39919;38.160;-122.260;2022-07-23T08:53:58;17.85;;;2.15;;
54005;SDS011;39919;38.160;-122.260;2022-07-23T08:56:27;19.33;;;2.75;;
54005;SDS011;39919;38.160;-122.260;2022-07-23T09:03:54;22.00;;;2.70;;
54005;SDS011;39919;38.160;-122.260;2022-07-23T09:06:23;14.82;;;2.90;;
54005;SDS011;39919;38.160;-122.260;2022-07-23T09:08:52;17.23;;;2.53;;
54005;SDS011;39919;38.160;-122.260;2022-07-23T09:11:22;17.33;;;2.88;;
54005;SDS011;39919;38.160;-122.260;2022-07-23T09:13:51;17.25;;;2.67;;
54005;SDS011;39919;38.160;-122.260;2022-07-23T09:16:24;17.10;;;2.67;;
54005;SDS011;39919;38.160;-122.260;2022-07-23T09:19:01;22.10;;;2.35;;
54005;SDS011;39919;38.160;-122.260;2022-07-23T09:21:32;18.23;;;2.20;;
54005;SDS011;39919;38.160;-122.260;2022-07-23T09:24:02;11.88;;;1.48;;
54005;SDS011;39919;38.160;-122.260;2022-07-23T09:26:33;18.88;;;2.90;;
54005;SDS011;39919;38.160;-122.260;2022-07-23T09:29:11;13.40;;;2.40;;
54005;SDS011;39919;38.160;-122.260;2022-07-23T09:31:48;20.13;;;2.53;;
54005;SDS011;39919;38.160;-122.260;2022-07-23T09:34:21;17.13;;;2.70;;
54005;SDS011;39919;38.160;-122.260;2022-07-23T09:36:51;12.00;;;1.90;;
54005;SDS011;39919;38.160;-122.260;2022-07-23T09:39:27;19.67;;;2.53;;
54005;SDS011;39919;38.160;-122.260;2022-07-23T09:41:56;21.17;;;2.53;;
54005;SDS011;39919;38.160;-122.260;2022-07-23T09:44:25;21.35;;;2.63;;
54005;SDS011;39919;38.160;-122.260;2022-07-23T09:46:57;16.05;;;1.75;;
54005;SDS011;39919;38.160;-122.260;2022-07-23T09:49:28;17.77;;;2.03;;
54005;SDS011;39919;38.160;-122.260;2022-07-23T09:51:58;11.80;;;1.70;;
54005;SDS011;39919;38.160;-122.260;2022-07-23T09:54:32;10.15;;;1.33;;
54005;SDS011;39919;38.160;-122.260;2022-07-23T09:57:02;14.15;;;1.75;;
54005;SDS011;39919;38.160;-122.260;2022-07-23T09:59:32;8.18;;;1.25;;
54005;SDS011;39919;38.160;-122.260;2022-07-23T10:02:02;15.05;;;1.65;;
54005;SDS011;39919;38.160;-122.260;2022-07-23T10:04:33;12.20;;;1.77;;
54005;SDS011;39919;38.160;-122.260;2022-07-23T10:07:02;14.82;;;1.35;;
54005;SDS011;39919;38.160;-122.260;2022-07-23T10:09:32;17.02;;;2.55;;
54005;SDS011;39919;38.160;-122.260;2022-07-23T10:12:03;10.07;;;1.13;;
54005;SDS011;39919;38.160;-122.260;2022-07-23T10:14:48;13.43;;;1.98;;
54005;SDS011;39919;38.160;-122.260;2022-07-23T10:17:16;19.30;;;2.72;;
54005;SDS011;39919;38.160;-122.260;2022-07-23T10:19:47;12.63;;;1.77;;
54005;SDS011;39919;38.160;-122.260;2022-07-23T10:22:19;9.85;;;1.55;;
54005;SDS011;39919;38.160;-122.260;2022-07-23T10:24:53;6.70;;;1.20;;
54005;SDS011;39919;38.160;-122.260;2022-07-23T10:27:37;9.30;;;1.83;;
54005;SDS011;39919;38.160;-122.260;2022-07-23T10:30:09;14.23;;;2.28;;
54005;SDS011;39919;38.160;-122.260;2022-07-23T10:32:41;10.50;;;1.42;;
54005;SDS011;39919;38.160;-122.260;2022-07-23T10:35:16;12.27;;;1.55;;
54005;SDS011;39919;38.160;-122.260;2022-07-23T10:37:47;15.52;;;1.85;;
54005;SDS011;39919;38.160;-122.260;2022-07-23T10:40:17;9.20;;;1.35;;
54005;SDS011;39919;38.160;-122.260;2022-07-23T10:42:48;9.75;;;1.55;;
54005;SDS011;39919;38.160;-122.260;2022-07-23T10:45:24;13.98;;;1.65;;
54005;SDS011;39919;38.160;-122.260;2022-07-23T10:47:54;9.85;;;1.48;;
54005;SDS011;39919;38.160;-122.260;2022-07-23T10:50:25;8.68;;;1.10;;
54005;SDS011;39919;38.160;-122.260;2022-07-23T10:55:44;8.52;;;1.45;;
54005;SDS011;39919;38.160;-122.260;2022-07-23T10:58:17;15.73;;;1.88;;
54005;SDS011;39919;38.160;-122.260;2022-07-23T11:00:46;8.25;;;1.23;;
54005;SDS011;39919;38.160;-122.260;2022-07-23T11:03:29;16.77;;;1.60;;
54005;SDS011;39919;38.160;-122.260;2022-07-23T11:06:04;12.05;;;1.60;;
54005;SDS011;39919;38.160;-122.260;2022-07-23T11:08:33;12.18;;;1.83;;
54005;SDS011;39919;38.160;-122.260;2022-07-23T11:11:09;11.50;;;1.45;;
54005;SDS011;39919;38.160;-122.260;2022-07-23T11:13:39;8.57;;;1.77;;
54005;SDS011;39919;38.160;-122.260;2022-07-23T11:16:11;7.07;;;1.52;;
54005;SDS011;39919;38.160;-122.260;2022-07-23T11:18:59;10.50;;;1.15;;
54005;SDS011;39919;38.160;-122.260;2022-07-23T11:21:43;15.13;;;1.90;;
54005;SDS011;39919;38.160;-122.260;2022-07-23T11:24:12;10.02;;;1.58;;
54005;SDS011;39919;38.160;-122.260;2022-07-23T11:26:43;14.57;;;2.03;;
54005;SDS011;39919;38.160;-122.260;2022-07-23T11:32:01;11.27;;;1.43;;
54005;SDS011;39919;38.160;-122.260;2022-07-23T11:34:31;12.50;;;1.52;;
54005;SDS011;39919;38.160;-122.260;2022-07-23T11:37:04;9.02;;;1.85;;
54005;SDS011;39919;38.160;-122.260;2022-07-23T11:39:34;13.65;;;2.38;;
54005;SDS011;39919;38.160;-122.260;2022-07-23T11:42:05;12.85;;;2.03;;
54005;SDS011;39919;38.160;-122.260;2022-07-23T11:44:35;14.43;;;2.45;;
54005;SDS011;39919;38.160;-122.260;2022-07-23T11:47:05;11.00;;;2.10;;
54005;SDS011;39919;38.160;-122.260;2022-07-23T11:49:34;14.80;;;1.63;;
54005;SDS011;39919;38.160;-122.260;2022-07-23T11:52:07;18.80;;;1.50;;
54005;SDS011;39919;38.160;-122.260;2022-07-23T11:54:46;16.27;;;2.25;;
54005;SDS011;39919;38.160;-122.260;2022-07-23T11:57:16;20.83;;;2.47;;
54005;SDS011;39919;38.160;-122.260;2022-07-23T11:59:46;14.15;;;2.05;;
54005;SDS011;39919;38.160;-122.260;2022-07-23T12:02:15;16.17;;;2.22;;
54005;SDS011;39919;38.160;-122.260;2022-07-23T12:04:44;7.28;;;1.08;;
54005;SDS011;39919;38.160;-122.260;2022-07-23T12:07:28;14.35;;;2.00;;
54005;SDS011;39919;38.160;-122.260;2022-07-23T12:09:57;11.80;;;1.27;;
54005;SDS011;39919;38.160;-122.260;2022-07-23T12:12:26;14.43;;;1.55;;
54005;SDS011;39919;38.160;-122.260;2022-07-23T12:14:56;6.97;;;1.73;;
54005;SDS011;39919;38.160;-122.260;2022-07-23T12:17:27;9.50;;;1.50;;
54005;SDS011;39919;38.160;-122.260;2022-07-23T12:19:56;11.63;;;1.45;;
54005;SDS011;39919;38.160;-122.260;2022-07-23T12:22:34;9.75;;;1.88;;
54005;SDS011;39919;38.160;-122.260;2022-07-23T12:25:04;9.73;;;1.15;;
54005;SDS011;39919;38.160;-122.260;2022-07-23T12:27:33;11.57;;;2.00;;
54005;SDS011;39919;38.160;-122.260;2022-07-23T12:30:21;11.48;;;1.23;;
54005;SDS011;39919;38.160;-122.260;2022-07-23T12:32:51;8.65;;;0.75;;
54005;SDS011;39919;38.160;-122.260;2022-07-23T12:35:21;10.70;;;1.25;;
54005;SDS011;39919;38.160;-122.260;2022-07-23T12:37:52;11.55;;;1.65;;
54005;SDS011;39919;38.160;-122.260;2022-07-23T12:40:28;11.18;;;1.83;;
54005;SDS011;39919;38.160;-122.260;2022-07-23T12:42:58;9.98;;;1.98;;
54005;SDS011;39919;38.160;-122.260;2022-07-23T12:47:56;10.07;;;1.95;;
54005;SDS011;39919;38.160;-122.260;2022-07-23T12:50:32;12.43;;;1.42;;
54005;SDS011;39919;38.160;-122.260;2022-07-23T12:53:04;5.50;;;0.98;;
54005;SDS011;39919;38.160;-122.260;2022-07-23T12:55:33;12.85;;;2.20;;
54005;SDS011;39919;38.160;-122.260;2022-07-23T12:58:06;10.65;;;1.67;;
54005;SDS011;39919;38.160;-122.260;2022-07-23T13:00:59;9.20;;;1.63;;
54005;SDS011;39919;38.160;-122.260;2022-07-23T13:03:29;8.90;;;2.17;;
54005;SDS011;39919;38.160;-122.260;2022-07-23T13:05:58;9.90;;;1.40;;
54005;SDS011;39919;38.160;-122.260;2022-07-23T13:08:30;10.77;;;1.48;;
54005;SDS011;39919;38.160;-122.260;2022-07-23T13:10:59;7.75;;;1.58;;
54005;SDS011;39919;38.160;-122.260;2022-07-23T13:13:29;7.28;;;1.20;;
54005;SDS011;39919;38.160;-122.260;2022-07-23T13:15:58;12.88;;;1.58;;
54005;SDS011;39919;38.160;-122.260;2022-07-23T13:18:27;7.78;;;0.90;;
54005;SDS011;39919;38.160;-122.260;2022-07-23T13:20:56;12.15;;;1.75;;
54005;SDS011;39919;38.160;-122.260;2022-07-23T13:23:29;8.48;;;1.35;;
54005;SDS011;39919;38.160;-122.260;2022-07-23T13:25:58;12.38;;;1.20;;
54005;SDS011;39919;38.160;-122.260;2022-07-23T13:28:28;13.68;;;2.63;;
54005;SDS011;39919;38.160;-122.260;2022-07-23T13:30:57;9.27;;;1.10;;
54005;SDS011;39919;38.160;-122.260;2022-07-23T13:33:26;10.60;;;1.25;;
54005;SDS011;39919;38.160;-122.260;2022-07-23T13:35:55;5.30;;;0.73;;
54005;SDS011;39919;38.160;-122.260;2022-07-23T13:38:25;4.15;;;1.10;;
54005;SDS011;39919;38.160;-122.260;2022-07-23T13:40:57;6.65;;;1.27;;
54005;SDS011;39919;38.160;-122.260;2022-07-23T13:43:26;8.32;;;1.10;;
54005;SDS011;39919;38.160;-122.260;2022-07-23T13:45:54;8.60;;;0.93;;
54005;SDS011;39919;38.160;-122.260;2022-07-23T13:48:25;9.57;;;1.50;;
54005;SDS011;39919;38.160;-122.260;2022-07-23T13:50:55;10.73;;;1.17;;
54005;SDS011;39919;38.160;-122.260;2022-07-23T13:53:25;11.93;;;1.55;;
54005;SDS011;39919;38.160;-122.260;2022-07-23T13:55:58;8.35;;;0.90;;
54005;SDS011;39919;38.160;-122.260;2022-07-23T13:58:30;5.93;;;1.05;;
54005;SDS011;39919;38.160;-122.260;2022-07-23T14:01:00;5.22;;;0.60;;
54005;SDS011;39919;38.160;-122.260;2022-07-23T14:03:32;7.88;;;0.82;;
54005;SDS011;39919;38.160;-122.260;2022-07-23T14:06:01;4.32;;;0.73;;
54005;SDS011;39919;38.160;-122.260;2022-07-23T14:08:31;7.03;;;0.68;;
54005;SDS011;39919;38.160;-122.260;2022-07-23T14:11:02;4.28;;;0.90;;
54005;SDS011;39919;38.160;-122.260;2022-07-23T14:13:31;4.68;;;0.68;;
54005;SDS011;39919;38.160;-122.260;2022-07-23T14:15:59;5.28;;;1.02;;
54005;SDS011;39919;38.160;-122.260;2022-07-23T14:18:29;4.78;;;0.60;;
54005;SDS011;39919;38.160;-122.260;2022-07-23T14:20:58;2.05;;;0.40;;
54005;SDS011;39919;38.160;-122.260;2022-07-23T14:23:26;4.10;;;0.50;;
54005;SDS011;39919;38.160;-122.260;2022-07-23T14:25:55;4.43;;;0.60;;
54005;SDS011;39919;38.160;-122.260;2022-07-23T14:28:26;4.47;;;0.50;;
54005;SDS011;39919;38.160;-122.260;2022-07-23T14:30:55;5.38;;;0.90;;
54005;SDS011;39919;38.160;-122.260;2022-07-23T14:33:24;2.88;;;0.60;;